This is the latest recevied weather packets stored in our database for station/object KJ4TDM. If no packets are shown the sender has not sent any weather packets the latest 10 day(s).
| Time | Temp. | Humidity | Pressure | Rain* | Wind** | Luminosity | Snow |
|---|---|---|---|---|---|---|---|
| 1777461368 | 17.22° C | 96% | 1014.9 hPa | 2.29 mm | - | - | - |
| 1777455967 | 17.22° C | 96% | 1014.6 hPa | 1.02 mm | - | - | - |
| 1777453267 | 17.22° C | 96% | 1015.2 hPa | 0.51 mm | - | - | - |
| 1777451434 | 17.78° C | 96% | 1014.8 hPa | 1.52 mm | - | - | - |
| 1777450576 | 17.78° C | 96% | 1014.6 hPa | 2.54 mm | - | - | - |
| 1777444268 | 17.78° C | 96% | 1014.8 hPa | 15.75 mm | - | - | - |
| 1777443352 | 17.78° C | 96% | 1015.3 hPa | 13.72 mm | - | - | - |
| 1777441568 | 17.78° C | 96% | 1016.3 hPa | 11.18 mm | - | - | - |
| 1777437001 | 17.78° C | 96% | 1015.5 hPa | 3.56 mm | - | - | - |
| 1777436160 | 17.78° C | 95% | 1015.1 hPa | 2.79 mm | - | - | - |
| 1777435243 | 17.78° C | 95% | 1014.7 hPa | 2.03 mm | - | - | - |
| 1777434373 | 17.78° C | 95% | 1015.5 hPa | 1.27 mm | - | - | - |
| 1777433454 | 17.78° C | 96% | 1016 hPa | 1.02 mm | - | - | - |
| 1777432511 | 17.78° C | 95% | 1016.6 hPa | 1.52 mm | - | - | - |
| 1777426243 | 17.78° C | 95% | 1018.4 hPa | 3.81 mm | - | - | - |
| 1777419937 | 18.89° C | 91% | 1018.6 hPa | 0.51 mm | - | - | - |
| 1777416311 | 19.44° C | 89% | 1016.2 hPa | 0 mm | - | - | - |
| 1777410946 | 20.56° C | 86% | 1016.5 hPa | 0 mm | - | - | - |
| 1777409191 | 21.11° C | 86% | 1017.3 hPa | 0 mm | - | - | - |
| 1777404664 | 22.22° C | 87% | 1018.2 hPa | 0 mm | - | - | - |
| 1777401045 | 20° C | 94% | 1018.9 hPa | 0 mm | - | - | - |
| 1777398366 | 18.89° C | 94% | 1018.5 hPa | 0.51 mm | - | - | - |
| 1777397410 | 18.89° C | 94% | 1019.1 hPa | 0.51 mm | - | - | - |
| 1777395651 | 18.89° C | 92% | 1020.1 hPa | 0 mm | - | - | - |
| 1777394708 | 19.44° C | 92% | 1020.3 hPa | 0 mm | - | - | - |
* Rain latest hour (hover to see other rain measurements)
** Current wind speed in m/s (hover to see current wind gust speed)